createdAt,value
2018-05-06T00:00:27.045Z,7.60
2018-05-06T00:02:53.810Z,7.60
2018-05-06T00:05:20.469Z,7.60
2018-05-06T00:07:47.921Z,7.60
2018-05-06T00:10:14.552Z,7.60
2018-05-06T00:12:41.387Z,7.60
2018-05-06T00:15:08.117Z,7.60
2018-05-06T00:17:35.555Z,7.60
2018-05-06T00:20:03.133Z,7.60
2018-05-06T00:22:29.766Z,7.50
2018-05-06T00:24:56.575Z,7.50
2018-05-06T00:27:23.973Z,7.50
2018-05-06T00:29:50.593Z,7.40
2018-05-06T00:32:18.005Z,7.40
2018-05-06T00:34:44.623Z,7.40
2018-05-06T00:37:11.270Z,7.40
2018-05-06T00:39:37.978Z,7.50
2018-05-06T00:42:04.658Z,7.50
2018-05-06T00:44:31.321Z,7.50
2018-05-06T00:46:59.126Z,7.40
2018-05-06T00:49:25.765Z,7.40
2018-05-06T00:51:52.427Z,7.30
2018-05-06T00:54:32.786Z,7.20
2018-05-06T00:57:00.166Z,7.20
2018-05-06T00:59:27.998Z,7.10
2018-05-06T01:01:55.415Z,7.00
2018-05-06T01:04:22.041Z,7.00
2018-05-06T01:06:49.440Z,6.90
2018-05-06T01:09:16.067Z,6.90
2018-05-06T01:11:42.754Z,6.90
2018-05-06T01:14:09.397Z,6.80
2018-05-06T01:16:36.054Z,6.80
2018-05-06T01:19:02.718Z,6.70
2018-05-06T01:21:29.446Z,6.70
2018-05-06T01:23:56.128Z,6.70
2018-05-06T01:26:22.828Z,6.60
2018-05-06T01:28:49.561Z,6.60
2018-05-06T01:31:16.307Z,6.60
2018-05-06T01:33:43.002Z,6.50
2018-05-06T01:36:10.402Z,6.40
2018-05-06T01:38:37.092Z,6.40
2018-05-06T01:41:05.317Z,6.40
2018-05-06T01:43:32.057Z,6.30
2018-05-06T01:45:58.695Z,6.40
2018-05-06T01:48:25.419Z,6.40
2018-05-06T01:50:52.116Z,6.30
2018-05-06T01:53:18.821Z,6.50
2018-05-06T01:55:45.578Z,6.30
2018-05-06T01:58:12.358Z,6.30
2018-05-06T02:00:39.942Z,6.20
2018-05-06T02:03:06.629Z,6.10
2018-05-06T02:05:34.353Z,6.10
2018-05-06T02:08:01.058Z,6.10
2018-05-06T02:10:28.461Z,6.00
2018-05-06T02:12:55.162Z,6.00
2018-05-06T02:15:22.544Z,6.00
2018-05-06T02:17:49.501Z,6.00
2018-05-06T02:20:16.226Z,5.90
2018-05-06T02:22:42.912Z,5.90
2018-05-06T02:25:10.340Z,5.80
2018-05-06T02:27:36.980Z,5.80
2018-05-06T02:30:03.696Z,5.80
2018-05-06T02:32:30.368Z,5.80
2018-05-06T02:34:57.216Z,5.80
2018-05-06T02:37:23.866Z,5.70
2018-05-06T02:39:50.519Z,5.70
2018-05-06T02:42:18.337Z,5.70
2018-05-06T02:44:45.036Z,5.70
2018-05-06T02:47:12.494Z,5.60
2018-05-06T02:49:39.197Z,5.60
2018-05-06T02:52:07.504Z,5.70
2018-05-06T02:54:34.902Z,5.70
2018-05-06T02:57:01.730Z,5.70
2018-05-06T02:59:28.398Z,5.80
2018-05-06T03:01:55.179Z,5.80
2018-05-06T03:04:22.635Z,5.80
2018-05-06T03:06:50.038Z,5.80
2018-05-06T03:09:17.272Z,5.80
2018-05-06T03:11:43.925Z,5.80
2018-05-06T03:14:10.573Z,5.80
2018-05-06T03:16:37.314Z,5.90
2018-05-06T03:19:03.997Z,5.90
2018-05-06T03:21:31.422Z,6.00
2018-05-06T03:23:58.127Z,6.00
2018-05-06T03:26:24.966Z,6.00
2018-05-06T03:28:51.690Z,6.10
2018-05-06T03:31:19.071Z,6.10
2018-05-06T03:33:46.533Z,6.20
2018-05-06T03:36:13.202Z,6.10
2018-05-06T03:38:39.886Z,6.20
2018-05-06T03:41:06.582Z,6.10
2018-05-06T03:43:33.324Z,6.10
2018-05-06T03:46:00.084Z,6.00
2018-05-06T03:48:26.853Z,5.90
2018-05-06T03:50:53.591Z,5.80
2018-05-06T03:53:20.330Z,5.80
2018-05-06T03:55:50.175Z,5.70
2018-05-06T03:58:29.221Z,5.70
2018-05-06T04:00:55.878Z,5.70
2018-05-06T04:03:22.651Z,5.60
2018-05-06T04:05:49.454Z,5.60
2018-05-06T04:08:16.871Z,5.60
2018-05-06T04:10:45.306Z,5.60
2018-05-06T04:13:12.755Z,5.60
2018-05-06T04:15:40.212Z,5.60
2018-05-06T04:18:07.609Z,5.70
2018-05-06T04:20:34.272Z,5.70
2018-05-06T04:23:01.082Z,5.70
2018-05-06T04:25:27.770Z,5.70
2018-05-06T04:27:55.192Z,5.80
2018-05-06T04:30:22.012Z,5.80
2018-05-06T04:32:48.688Z,5.90
2018-05-06T04:35:15.360Z,6.00
2018-05-06T04:37:42.848Z,6.00
2018-05-06T04:40:09.567Z,6.00
2018-05-06T04:42:36.975Z,6.00
2018-05-06T04:45:03.653Z,6.00
2018-05-06T04:47:31.086Z,6.10
2018-05-06T04:49:58.500Z,6.10
2018-05-06T04:52:25.250Z,6.20
2018-05-06T04:54:51.916Z,6.20
2018-05-06T04:57:18.587Z,6.20
2018-05-06T04:59:45.791Z,6.20
2018-05-06T05:02:12.436Z,6.40
2018-05-06T05:04:40.574Z,6.60
2018-05-06T05:07:07.310Z,6.60
2018-05-06T05:09:34.044Z,6.70
2018-05-06T05:12:01.446Z,7.00
2018-05-06T05:14:28.103Z,6.90
2018-05-06T05:16:55.004Z,7.30
2018-05-06T05:19:21.659Z,7.60
2018-05-06T05:21:55.356Z,8.10
2018-05-06T05:24:21.994Z,8.70
2018-05-06T05:26:48.640Z,9.30
2018-05-06T05:29:16.848Z,10.60
2018-05-06T05:31:44.215Z,11.20
2018-05-06T05:34:11.626Z,11.80
2018-05-06T05:36:39.042Z,12.40
2018-05-06T05:39:05.706Z,12.40
2018-05-06T05:41:32.411Z,13.00
2018-05-06T05:43:59.132Z,13.60
2018-05-06T05:46:26.617Z,14.50
2018-05-06T05:48:53.250Z,14.50
2018-05-06T05:51:19.935Z,14.90
2018-05-06T05:53:46.596Z,15.20
2018-05-06T05:56:13.503Z,15.50
2018-05-06T05:58:40.214Z,15.80
2018-05-06T06:01:06.953Z,16.00
2018-05-06T06:03:33.645Z,16.30
2018-05-06T06:06:00.347Z,16.60
2018-05-06T06:08:27.064Z,16.90
2018-05-06T06:10:53.779Z,17.10
2018-05-06T06:13:21.238Z,17.60
2018-05-06T06:15:48.651Z,17.70
2018-05-06T06:18:15.295Z,17.70
2018-05-06T06:20:42.102Z,17.80
2018-05-06T06:23:08.827Z,18.00
2018-05-06T06:25:35.526Z,18.30
2018-05-06T06:28:02.230Z,18.40
2018-05-06T06:30:28.879Z,18.50
2018-05-06T06:32:55.635Z,18.70
2018-05-06T06:35:22.274Z,18.70
2018-05-06T06:37:48.958Z,18.80
2018-05-06T06:40:15.634Z,19.10
2018-05-06T06:42:42.323Z,19.40
2018-05-06T06:45:09.746Z,19.60
2018-05-06T06:47:36.415Z,19.60
2018-05-06T06:50:03.867Z,19.70
2018-05-06T06:52:30.515Z,19.70
2018-05-06T06:54:57.935Z,19.80
2018-05-06T06:57:24.639Z,19.80
2018-05-06T06:59:51.348Z,19.90
2018-05-06T07:02:18.904Z,19.60
2018-05-06T07:04:45.674Z,19.60
2018-05-06T07:07:12.382Z,19.80
2018-05-06T07:09:39.790Z,20.20
2018-05-06T07:12:06.932Z,20.10
2018-05-06T07:14:33.597Z,20.40
2018-05-06T07:17:00.260Z,20.70
2018-05-06T07:19:27.680Z,21.00
2018-05-06T07:21:54.345Z,20.90
2018-05-06T07:24:21.021Z,21.00
2018-05-06T07:26:47.666Z,21.20
2018-05-06T07:29:14.343Z,21.40
2018-05-06T07:31:40.998Z,21.40
2018-05-06T07:34:07.665Z,21.20
2018-05-06T07:36:34.371Z,21.40
2018-05-06T07:39:01.158Z,21.50
2018-05-06T07:41:27.811Z,21.30
2018-05-06T07:43:54.471Z,21.40
2018-05-06T07:46:21.142Z,21.40
2018-05-06T07:48:47.913Z,21.40
2018-05-06T07:51:14.594Z,21.40
2018-05-06T07:53:41.259Z,21.50
2018-05-06T07:56:08.950Z,21.80
2018-05-06T07:58:35.602Z,21.70
2018-05-06T08:01:02.386Z,21.80
2018-05-06T08:03:29.067Z,21.90
2018-05-06T08:05:55.751Z,22.10
2018-05-06T08:08:22.547Z,22.00
2018-05-06T08:10:49.353Z,21.80
2018-05-06T08:13:15.970Z,21.90
2018-05-06T08:15:42.597Z,22.10
2018-05-06T08:18:09.742Z,22.30
2018-05-06T08:20:36.385Z,22.60
2018-05-06T08:23:03.018Z,22.50
2018-05-06T08:25:29.703Z,22.60
2018-05-06T08:27:57.108Z,22.50
2018-05-06T08:30:23.867Z,22.50
2018-05-06T08:32:50.532Z,22.70
2018-05-06T08:35:17.915Z,23.00
2018-05-06T08:37:44.582Z,23.00
2018-05-06T08:40:11.237Z,23.40
2018-05-06T08:42:37.952Z,23.60
2018-05-06T08:45:04.613Z,23.80
2018-05-06T08:47:31.410Z,23.90
2018-05-06T08:49:58.282Z,23.90
2018-05-06T08:52:25.144Z,24.10
2018-05-06T08:54:51.780Z,24.00
2018-05-06T08:57:19.218Z,24.10
2018-05-06T08:59:45.999Z,24.10
2018-05-06T09:02:13.382Z,24.20
2018-05-06T09:04:40.069Z,24.10
2018-05-06T09:07:07.496Z,24.20
2018-05-06T09:09:34.139Z,24.30
2018-05-06T09:12:00.781Z,24.40
2018-05-06T09:14:27.461Z,24.30
2018-05-06T09:16:54.094Z,24.30
2018-05-06T09:19:20.763Z,24.60
2018-05-06T09:21:47.415Z,24.80
2018-05-06T09:24:14.092Z,24.90
2018-05-06T09:26:40.786Z,24.90
2018-05-06T09:29:07.496Z,24.50
2018-05-06T09:31:34.906Z,24.30
2018-05-06T09:34:01.622Z,24.30
2018-05-06T09:36:28.407Z,24.20
2018-05-06T09:38:54.979Z,24.10
2018-05-06T09:41:22.115Z,24.20
2018-05-06T09:43:49.523Z,24.40
2018-05-06T09:46:16.194Z,24.30
2018-05-06T09:48:42.922Z,24.40
2018-05-06T09:51:09.540Z,24.20
2018-05-06T09:53:36.740Z,24.10
2018-05-06T09:56:04.121Z,23.90
2018-05-06T09:58:30.781Z,23.90
2018-05-06T10:00:57.576Z,23.90
2018-05-06T10:03:24.978Z,24.10
2018-05-06T10:05:51.807Z,24.00
2018-05-06T10:08:18.684Z,24.00
2018-05-06T10:10:45.382Z,24.20
2018-05-06T10:13:12.032Z,24.20
2018-05-06T10:15:38.760Z,24.40
2018-05-06T10:18:05.939Z,24.50
2018-05-06T10:20:32.610Z,24.50
2018-05-06T10:22:59.994Z,24.60
2018-05-06T10:25:27.059Z,24.60
2018-05-06T10:27:53.672Z,24.70
2018-05-06T10:30:20.330Z,25.00
2018-05-06T10:32:47.065Z,25.00
2018-05-06T10:35:13.775Z,25.00
2018-05-06T10:37:41.362Z,25.00
2018-05-06T10:40:10.671Z,24.90
2018-05-06T10:42:38.271Z,24.90
2018-05-06T10:45:04.947Z,24.80
2018-05-06T10:47:32.330Z,24.70
2018-05-06T10:49:59.024Z,24.70
2018-05-06T10:52:25.729Z,24.60
2018-05-06T10:54:52.406Z,24.50
2018-05-06T10:57:20.032Z,24.80
2018-05-06T10:59:46.832Z,24.80
2018-05-06T11:02:13.443Z,24.70
2018-05-06T11:04:40.128Z,24.70
2018-05-06T11:07:06.782Z,24.70
2018-05-06T11:09:33.434Z,24.80
2018-05-06T11:12:00.132Z,24.80
2018-05-06T11:14:26.837Z,24.60
2018-05-06T11:16:54.450Z,24.80
2018-05-06T11:19:21.122Z,24.70
2018-05-06T11:21:47.836Z,24.80
2018-05-06T11:24:14.515Z,24.80
2018-05-06T11:26:41.955Z,24.90
2018-05-06T11:29:09.378Z,24.80
2018-05-06T11:31:36.020Z,24.80
2018-05-06T11:34:02.759Z,24.80
2018-05-06T11:36:29.414Z,24.60
2018-05-06T11:38:56.057Z,24.70
2018-05-06T11:41:22.880Z,24.70
2018-05-06T11:43:49.526Z,24.70
2018-05-06T11:46:16.211Z,24.80
2018-05-06T11:48:43.941Z,25.00
2018-05-06T11:51:10.640Z,25.00
2018-05-06T11:53:37.440Z,25.00
2018-05-06T11:56:04.873Z,25.00
2018-05-06T11:58:31.530Z,25.00
2018-05-06T12:00:59.462Z,24.90
2018-05-06T12:03:26.133Z,24.90
2018-05-06T12:05:52.806Z,24.90
2018-05-06T12:08:19.752Z,24.90
2018-05-06T12:10:46.441Z,25.10
2018-05-06T12:13:13.198Z,25.00
2018-05-06T12:15:39.930Z,24.80
2018-05-06T12:18:06.708Z,24.80
2018-05-06T12:20:34.340Z,24.80
2018-05-06T12:23:01.786Z,24.80
2018-05-06T12:25:28.482Z,24.80
2018-05-06T12:27:55.207Z,25.00
2018-05-06T12:30:21.891Z,25.10
2018-05-06T12:32:48.576Z,25.20
2018-05-06T12:35:15.242Z,25.10
2018-05-06T12:37:41.962Z,25.10
2018-05-06T12:40:08.702Z,25.00
2018-05-06T12:42:35.412Z,25.00
2018-05-06T12:45:02.898Z,25.00
2018-05-06T12:47:29.683Z,25.00
2018-05-06T12:49:56.280Z,24.90
2018-05-06T12:52:22.954Z,24.70
2018-05-06T12:54:49.687Z,24.70
2018-05-06T12:57:16.344Z,24.80
2018-05-06T12:59:42.998Z,24.90
2018-05-06T13:02:09.769Z,24.90
2018-05-06T13:04:36.443Z,24.80
2018-05-06T13:07:03.145Z,24.70
2018-05-06T13:09:29.811Z,24.80
2018-05-06T13:11:56.757Z,24.70
2018-05-06T13:14:23.389Z,24.70
2018-05-06T13:16:50.033Z,24.70
2018-05-06T13:19:16.710Z,24.80
2018-05-06T13:21:44.108Z,24.90
2018-05-06T13:24:10.805Z,24.90
2018-05-06T13:26:38.292Z,24.90
2018-05-06T13:29:05.141Z,24.90
2018-05-06T13:31:31.807Z,24.90
2018-05-06T13:33:58.499Z,24.90
2018-05-06T13:36:25.254Z,25.00
2018-05-06T13:38:51.949Z,25.10
2018-05-06T13:41:18.663Z,25.00
2018-05-06T13:43:45.758Z,24.80
2018-05-06T13:46:13.174Z,24.70
2018-05-06T13:48:39.890Z,24.70
2018-05-06T13:51:06.554Z,24.70
2018-05-06T13:53:33.226Z,24.70
2018-05-06T13:56:00.920Z,25.00
2018-05-06T13:58:27.656Z,25.00
2018-05-06T14:00:54.347Z,25.10
2018-05-06T14:03:20.990Z,24.90
2018-05-06T14:05:47.809Z,24.90
2018-05-06T14:08:14.482Z,25.10
2018-05-06T14:10:42.008Z,25.10
2018-05-06T14:13:08.689Z,25.10
2018-05-06T14:15:36.149Z,25.20
2018-05-06T14:18:03.584Z,25.30
2018-05-06T14:20:31.060Z,25.20
2018-05-06T14:22:58.500Z,25.20
2018-05-06T14:25:25.994Z,25.20
2018-05-06T14:27:52.732Z,25.20
2018-05-06T14:30:19.402Z,25.10
2018-05-06T14:32:46.111Z,24.90
2018-05-06T14:35:12.919Z,24.80
2018-05-06T14:37:39.556Z,24.70
2018-05-06T14:40:07.047Z,24.80
2018-05-06T14:42:33.958Z,24.70
2018-05-06T14:45:01.451Z,24.90
2018-05-06T14:47:40.518Z,24.90
2018-05-06T14:50:07.883Z,24.80
2018-05-06T14:52:35.271Z,24.80
2018-05-06T14:55:02.060Z,24.70
2018-05-06T14:57:28.763Z,24.70
2018-05-06T14:59:55.452Z,24.60
2018-05-06T15:02:23.627Z,24.50
2018-05-06T15:04:50.265Z,24.50
2018-05-06T15:07:16.945Z,24.50
2018-05-06T15:09:43.578Z,24.60
2018-05-06T15:12:11.323Z,24.60
2018-05-06T15:14:37.885Z,24.60
2018-05-06T15:17:05.141Z,24.60
2018-05-06T15:19:31.820Z,24.70
2018-05-06T15:21:58.460Z,24.70
2018-05-06T15:24:25.162Z,24.60
2018-05-06T15:26:51.899Z,24.50
2018-05-06T15:29:18.651Z,24.50
2018-05-06T15:31:45.322Z,24.60
2018-05-06T15:34:11.997Z,24.50
2018-05-06T15:36:39.371Z,24.50
2018-05-06T15:39:06.095Z,24.50
2018-05-06T15:41:32.811Z,24.60
2018-05-06T15:44:00.242Z,24.70
2018-05-06T15:46:27.047Z,24.70
2018-05-06T15:48:53.844Z,24.60
2018-05-06T15:51:22.050Z,24.30
2018-05-06T15:53:49.495Z,24.20
2018-05-06T15:56:16.380Z,24.20
2018-05-06T15:58:43.028Z,24.30
2018-05-06T16:01:09.842Z,24.30
2018-05-06T16:03:48.700Z,24.20
2018-05-06T16:06:16.140Z,24.30
2018-05-06T16:08:42.815Z,24.30
2018-05-06T16:11:09.603Z,24.40
2018-05-06T16:13:36.268Z,24.40
2018-05-06T16:16:02.980Z,24.30
2018-05-06T16:18:30.165Z,24.10
2018-05-06T16:20:56.815Z,24.00
2018-05-06T16:23:23.517Z,24.00
2018-05-06T16:25:50.350Z,23.80
2018-05-06T16:28:16.995Z,23.60
2018-05-06T16:30:43.683Z,23.50
2018-05-06T16:33:10.738Z,23.50
2018-05-06T16:35:38.374Z,23.40
2018-05-06T16:38:05.312Z,23.30
2018-05-06T16:40:32.121Z,23.30
2018-05-06T16:42:58.779Z,23.20
2018-05-06T16:45:25.928Z,23.20
2018-05-06T16:47:52.576Z,23.20
2018-05-06T16:50:19.234Z,23.20
2018-05-06T16:52:46.108Z,23.20
2018-05-06T16:55:12.868Z,23.10
2018-05-06T16:57:39.558Z,23.00
2018-05-06T17:00:06.323Z,23.00
2018-05-06T17:02:33.107Z,23.00
2018-05-06T17:04:59.827Z,22.90
2018-05-06T17:07:26.553Z,22.90
2018-05-06T17:09:53.200Z,22.90
2018-05-06T17:12:19.855Z,22.80
2018-05-06T17:14:46.581Z,22.80
2018-05-06T17:17:13.274Z,22.80
2018-05-06T17:19:40.881Z,22.60
2018-05-06T17:22:07.786Z,22.60
2018-05-06T17:24:34.435Z,22.50
2018-05-06T17:27:01.853Z,22.30
2018-05-06T17:29:28.662Z,22.30
2018-05-06T17:31:55.388Z,22.30
2018-05-06T17:34:22.764Z,22.20
2018-05-06T17:36:49.436Z,22.20
2018-05-06T17:39:16.127Z,22.10
2018-05-06T17:41:42.818Z,22.00
2018-05-06T17:44:10.968Z,21.90
2018-05-06T17:46:37.757Z,21.90
2018-05-06T17:49:05.188Z,21.70
2018-05-06T17:51:31.884Z,21.70
2018-05-06T17:53:58.530Z,21.60
2018-05-06T17:56:25.220Z,21.50
2018-05-06T17:58:52.895Z,21.30
2018-05-06T18:01:19.639Z,21.30
2018-05-06T18:03:47.116Z,21.10
2018-05-06T18:06:13.824Z,21.10
2018-05-06T18:08:41.228Z,21.00
2018-05-06T18:11:07.873Z,20.90
2018-05-06T18:13:34.591Z,20.90
2018-05-06T18:16:01.225Z,20.80
2018-05-06T18:18:27.920Z,20.80
2018-05-06T18:20:54.705Z,20.70
2018-05-06T18:23:21.383Z,20.70
2018-05-06T18:25:48.038Z,20.60
2018-05-06T18:28:15.126Z,20.50
2018-05-06T18:30:41.805Z,20.40
2018-05-06T18:33:08.459Z,20.30
2018-05-06T18:35:35.274Z,20.10
2018-05-06T18:38:01.984Z,20.00
2018-05-06T18:40:28.727Z,19.90
2018-05-06T18:42:55.452Z,19.80
2018-05-06T18:45:22.071Z,19.70
2018-05-06T18:47:49.660Z,19.40
2018-05-06T18:50:16.325Z,19.40
2018-05-06T18:52:43.013Z,19.30
2018-05-06T18:55:09.702Z,19.10
2018-05-06T18:57:36.326Z,19.00
2018-05-06T19:00:03.076Z,18.80
2018-05-06T19:02:29.746Z,18.70
2018-05-06T19:04:56.422Z,18.60
2018-05-06T19:07:23.240Z,18.40
2018-05-06T19:09:49.942Z,18.30
2018-05-06T19:12:16.580Z,18.10
2018-05-06T19:14:43.943Z,17.90
2018-05-06T19:17:11.463Z,17.80
2018-05-06T19:19:38.400Z,17.70
2018-05-06T19:22:05.041Z,17.60
2018-05-06T19:24:31.712Z,17.50
2018-05-06T19:26:58.364Z,17.30
2018-05-06T19:29:26.643Z,17.10
2018-05-06T19:31:53.331Z,17.10
2018-05-06T19:34:20.055Z,17.00
2018-05-06T19:36:46.642Z,16.90
2018-05-06T19:39:13.425Z,16.80
2018-05-06T19:41:40.019Z,16.70
2018-05-06T19:44:06.726Z,16.70
2018-05-06T19:46:33.359Z,16.60
2018-05-06T19:49:00.075Z,16.50
2018-05-06T19:51:27.768Z,16.30
2018-05-06T19:53:54.405Z,16.30
2018-05-06T19:56:20.990Z,16.20
2018-05-06T19:58:47.785Z,16.10
2018-05-06T20:01:14.461Z,16.00
2018-05-06T20:03:41.806Z,15.80
2018-05-06T20:06:09.155Z,15.80
2018-05-06T20:08:35.817Z,15.70
2018-05-06T20:11:02.410Z,15.60
2018-05-06T20:13:29.315Z,15.50
2018-05-06T20:15:55.892Z,15.40
2018-05-06T20:18:22.500Z,15.20
2018-05-06T20:20:49.258Z,15.10
2018-05-06T20:23:15.870Z,15.00
2018-05-06T20:25:42.511Z,14.90
2018-05-06T20:28:09.893Z,14.70
2018-05-06T20:30:36.552Z,14.70
2018-05-06T20:33:03.264Z,14.60
2018-05-06T20:35:29.915Z,14.50
2018-05-06T20:37:58.205Z,14.30
2018-05-06T20:40:24.802Z,14.30
2018-05-06T20:42:51.560Z,14.30
2018-05-06T20:45:18.267Z,14.20
2018-05-06T20:47:45.647Z,14.10
2018-05-06T20:50:12.361Z,14.10
2018-05-06T20:52:39.760Z,14.00
2018-05-06T20:55:13.472Z,14.00
2018-05-06T20:57:40.190Z,14.00
2018-05-06T21:00:06.832Z,13.90
2018-05-06T21:02:33.531Z,13.80
2018-05-06T21:05:00.928Z,13.60
2018-05-06T21:07:27.789Z,13.60
2018-05-06T21:09:54.474Z,13.50
2018-05-06T21:12:21.887Z,13.40
2018-05-06T21:14:48.584Z,13.40
2018-05-06T21:17:15.186Z,13.40
2018-05-06T21:19:43.567Z,13.30
2018-05-06T21:22:11.787Z,13.30
2018-05-06T21:24:38.529Z,13.30
2018-05-06T21:27:05.207Z,13.30
2018-05-06T21:29:31.983Z,13.30
2018-05-06T21:31:58.615Z,13.20
2018-05-06T21:34:26.102Z,13.10
2018-05-06T21:36:52.812Z,13.10
2018-05-06T21:39:19.687Z,13.00
2018-05-06T21:41:46.304Z,13.00
2018-05-06T21:44:14.122Z,12.80
2018-05-06T21:46:40.925Z,12.80
2018-05-06T21:49:07.595Z,12.80
2018-05-06T21:51:34.690Z,12.70
2018-05-06T21:54:02.169Z,12.60
2018-05-06T21:56:28.787Z,12.60
2018-05-06T21:58:55.418Z,12.50
2018-05-06T22:01:22.039Z,12.50
2018-05-06T22:03:49.562Z,12.40
2018-05-06T22:06:16.383Z,12.40
2018-05-06T22:08:43.010Z,12.30
2018-05-06T22:11:09.638Z,12.30
2018-05-06T22:13:36.296Z,12.30
2018-05-06T22:16:02.936Z,12.30
2018-05-06T22:18:29.529Z,12.30
2018-05-06T22:20:56.152Z,12.30
2018-05-06T22:23:23.538Z,12.30
2018-05-06T22:25:50.138Z,12.30
2018-05-06T22:28:17.491Z,12.30
2018-05-06T22:30:44.885Z,12.30
2018-05-06T22:33:11.550Z,12.20
2018-05-06T22:35:38.124Z,12.30
2018-05-06T22:38:04.796Z,12.20
2018-05-06T22:40:31.435Z,12.20
2018-05-06T22:42:58.030Z,12.10
2018-05-06T22:45:24.694Z,12.00
2018-05-06T22:47:51.443Z,11.90
2018-05-06T22:50:18.931Z,11.80
2018-05-06T22:52:45.604Z,11.70
2018-05-06T22:55:12.374Z,11.70
2018-05-06T22:57:39.004Z,11.60
2018-05-06T23:00:05.802Z,11.50
2018-05-06T23:02:32.405Z,11.50
2018-05-06T23:04:59.151Z,11.50
2018-05-06T23:07:25.909Z,11.40
2018-05-06T23:09:52.598Z,11.30
2018-05-06T23:12:20.039Z,11.20
2018-05-06T23:14:46.841Z,11.20
2018-05-06T23:17:13.538Z,11.10
2018-05-06T23:19:40.286Z,11.10
2018-05-06T23:22:07.774Z,10.90
2018-05-06T23:24:34.519Z,10.90
2018-05-06T23:27:01.188Z,10.80
2018-05-06T23:29:27.997Z,10.80
2018-05-06T23:31:54.661Z,10.80
2018-05-06T23:34:21.438Z,10.70
2018-05-06T23:36:48.218Z,10.70
2018-05-06T23:39:14.931Z,10.70
2018-05-06T23:41:42.346Z,10.60
2018-05-06T23:44:09.040Z,10.50
2018-05-06T23:46:35.731Z,10.50
2018-05-06T23:49:02.421Z,10.40
2018-05-06T23:51:29.122Z,10.40
2018-05-06T23:53:56.255Z,10.40
2018-05-06T23:56:22.989Z,10.30
2018-05-06T23:58:49.601Z,10.30
